Hatley, Wisconsin
Current Conditions -  °F | °C
As of 4:54 AM on Saturday 25 Oct 2014 (Local Time) from KAUW Reporting Station
Clear Clear  
Wind Chill: 52°   Ceiling: Unl
Heat Index: 52°   Visibility: 7mi
Dew Point: 49°   Wind: 9mph
Humidity: 89%   Direction: 290°WNW
Pressure: 29.83"   Gusts: NA
Location:  44.89°N, 89.34°W
Report Text: KAUW 250954Z AUTO 29008KT 7SM CLR 11/09 A2983 RMK AO2 SLP107 T01110094
Loading
Personal Weather Stations






























Interactive Weather Map
Tropical Storm Tracking
New forecast layout! Learn more

10-Day Weather Forecast

Advertisements
Track Severe Weather on mobile